createdAt,value
2019-02-11T00:00:44.870Z,87.35
2019-02-11T00:01:44.857Z,87.56
2019-02-11T00:02:44.849Z,87.77
2019-02-11T00:03:44.837Z,88.59
2019-02-11T00:04:44.826Z,88.18
2019-02-11T00:05:44.815Z,88.64
2019-02-11T00:06:44.803Z,89.52
2019-02-11T00:07:44.796Z,89.67
2019-02-11T00:08:44.781Z,89.92
2019-02-11T00:09:44.775Z,89.92
2019-02-11T00:10:44.765Z,91.92
2019-02-11T00:11:44.749Z,93.04
2019-02-11T00:12:44.740Z,93.08
2019-02-11T00:13:44.728Z,94.32
2019-02-11T00:14:44.721Z,95.19
2019-02-11T00:15:44.709Z,95.40
2019-02-11T00:16:44.698Z,95.09
2019-02-11T00:17:44.685Z,95.40
2019-02-11T00:18:44.682Z,97.10
2019-02-11T00:19:44.662Z,96.54
2019-02-11T00:20:44.656Z,97.10
2019-02-11T00:21:44.643Z,97.26
2019-02-11T00:22:44.631Z,97.20
2019-02-11T00:23:44.623Z,96.89
2019-02-11T00:24:44.616Z,97.20
2019-02-11T00:25:44.603Z,97.83
2019-02-11T00:26:44.592Z,97.62
2019-02-11T00:27:44.579Z,97.41
2019-02-11T00:28:44.574Z,97.83
2019-02-11T00:29:44.558Z,98.24
2019-02-11T00:30:44.548Z,98.24
2019-02-11T00:31:44.537Z,97.93
2019-02-11T00:32:44.545Z,97.83
2019-02-11T00:33:44.514Z,98.24
2019-02-11T00:34:44.504Z,98.08
2019-02-11T00:35:44.501Z,97.93
2019-02-11T00:36:44.498Z,98.18
2019-02-11T00:37:44.472Z,97.97
2019-02-11T00:38:44.463Z,97.77
2019-02-11T00:39:44.451Z,96.83
2019-02-11T00:40:44.443Z,97.14
2019-02-11T00:41:44.429Z,97.35
2019-02-11T00:42:44.419Z,96.73
2019-02-11T00:43:44.408Z,97.25
2019-02-11T00:44:44.398Z,96.62
2019-02-11T00:45:44.387Z,97.77
2019-02-11T00:46:44.377Z,97.29
2019-02-11T00:47:44.365Z,98.02
2019-02-11T00:48:44.356Z,96.78
2019-02-11T00:49:44.346Z,96.88
2019-02-11T00:50:44.336Z,96.67
2019-02-11T00:51:44.326Z,96.67
2019-02-11T00:52:44.323Z,96.05
2019-02-11T00:53:44.303Z,95.22
2019-02-11T00:54:44.294Z,96.26
2019-02-11T00:55:44.283Z,96.15
2019-02-11T00:56:44.272Z,95.84
2019-02-11T00:57:44.259Z,96.05
2019-02-11T00:58:44.248Z,96.05
2019-02-11T00:59:44.240Z,96.88
2019-02-11T01:00:44.228Z,96.98
2019-02-11T01:01:44.215Z,96.15
2019-02-11T01:02:44.207Z,96.57
2019-02-11T01:03:44.197Z,96.05
2019-02-11T01:04:44.186Z,97.19
2019-02-11T01:05:44.174Z,96.78
2019-02-11T01:06:44.163Z,96.88
2019-02-11T01:07:44.152Z,96.67
2019-02-11T01:08:44.142Z,96.98
2019-02-11T01:09:44.131Z,96.57
2019-02-11T01:10:44.120Z,95.43
2019-02-11T01:11:44.111Z,95.22
2019-02-11T01:12:44.099Z,94.39
2019-02-11T01:13:44.089Z,91.91
2019-02-11T01:14:44.078Z,92.05
2019-02-11T01:15:44.067Z,92.01
2019-02-11T01:16:44.056Z,93.50
2019-02-11T01:17:44.046Z,92.57
2019-02-11T01:18:44.036Z,91.95
2019-02-11T01:19:44.024Z,91.85
2019-02-11T01:20:44.018Z,92.20
2019-02-11T01:21:44.003Z,91.58
2019-02-11T01:22:43.993Z,90.85
2019-02-11T01:23:43.987Z,90.85
2019-02-11T01:24:43.970Z,92.10
2019-02-11T01:25:43.960Z,92.10
2019-02-11T01:26:43.949Z,92.30
2019-02-11T01:27:43.940Z,92.14
2019-02-11T01:28:43.931Z,93.33
2019-02-11T01:29:43.916Z,93.44
2019-02-11T01:30:43.905Z,93.49
2019-02-11T01:31:43.895Z,93.38
2019-02-11T01:32:43.885Z,93.38
2019-02-11T01:33:43.873Z,93.70
2019-02-11T01:34:43.864Z,93.80
2019-02-11T01:35:43.853Z,93.63
2019-02-11T01:36:43.841Z,93.12
2019-02-11T01:37:43.832Z,93.22
2019-02-11T01:38:43.822Z,91.97
2019-02-11T01:39:43.810Z,91.49
2019-02-11T01:40:43.818Z,91.80
2019-02-11T01:41:43.789Z,92.01
2019-02-11T01:42:43.778Z,91.28
2019-02-11T01:43:43.771Z,90.97
2019-02-11T01:44:43.758Z,91.70
2019-02-11T01:45:43.749Z,92.32
2019-02-11T01:46:43.740Z,92.16
2019-02-11T01:47:43.726Z,93.41
2019-02-11T01:48:43.717Z,93.45
2019-02-11T01:49:43.703Z,94.49
2019-02-11T01:50:43.695Z,94.70
2019-02-11T01:51:43.685Z,95.47
2019-02-11T01:52:43.672Z,95.57
2019-02-11T01:53:43.662Z,95.78
2019-02-11T01:54:43.651Z,95.99
2019-02-11T01:55:43.640Z,95.62
2019-02-11T01:56:43.631Z,96.03
2019-02-11T01:57:43.620Z,96.45
2019-02-11T01:58:43.609Z,96.24
2019-02-11T01:59:43.599Z,97.12
2019-02-11T02:00:43.587Z,97.28
2019-02-11T02:01:43.579Z,97.49
2019-02-11T02:02:43.569Z,97.17
2019-02-11T02:03:43.558Z,98.16
2019-02-11T02:04:43.562Z,98.47
2019-02-11T02:05:43.536Z,98.36
2019-02-11T02:06:43.526Z,98.68
2019-02-11T02:07:43.516Z,98.36
2019-02-11T02:08:43.503Z,98.20
2019-02-11T02:09:43.493Z,98.41
2019-02-11T02:10:43.482Z,98.41
2019-02-11T02:11:43.471Z,98.72
2019-02-11T02:12:43.460Z,99.50
2019-02-11T02:13:44.820Z,98.87
2019-02-11T02:14:43.440Z,99.81
2019-02-11T02:15:43.432Z,99.99
2019-02-11T02:16:43.421Z,99.99
2019-02-11T02:17:43.409Z,99.99
2019-02-11T02:18:43.403Z,99.91
2019-02-11T02:19:43.388Z,99.99
2019-02-11T02:20:43.925Z,99.81
2019-02-11T02:21:43.371Z,99.99
2019-02-11T02:22:43.357Z,99.99
2019-02-11T02:23:43.350Z,99.91
2019-02-11T02:24:43.335Z,99.99
2019-02-11T02:25:43.324Z,99.99
2019-02-11T02:26:43.315Z,99.91
2019-02-11T02:27:43.302Z,99.99
2019-02-11T02:28:43.293Z,99.99
2019-02-11T02:29:43.281Z,99.99
2019-02-11T02:30:43.271Z,99.81
2019-02-11T02:31:43.267Z,99.99
2019-02-11T02:32:43.250Z,99.99
2019-02-11T02:33:43.238Z,99.99
2019-02-11T02:34:43.230Z,99.91
2019-02-11T02:35:43.220Z,99.99
2019-02-11T02:36:43.207Z,99.81
2019-02-11T02:37:43.199Z,99.99
2019-02-11T02:38:43.189Z,99.81
2019-02-11T02:39:43.176Z,99.99
2019-02-11T02:40:43.164Z,99.99
2019-02-11T02:41:43.154Z,99.91
2019-02-11T02:42:43.146Z,99.99
2019-02-11T02:43:43.133Z,99.99
2019-02-11T02:44:43.122Z,99.71
2019-02-11T02:45:43.113Z,99.91
2019-02-11T02:46:43.103Z,99.91
2019-02-11T02:47:43.092Z,99.91
2019-02-11T02:48:43.081Z,99.99
2019-02-11T02:49:43.073Z,99.99
2019-02-11T02:50:43.062Z,99.99
2019-02-11T02:51:43.052Z,99.99
2019-02-11T02:52:43.043Z,99.99
2019-02-11T02:53:43.031Z,99.99
2019-02-11T02:54:43.019Z,99.99
2019-02-11T02:55:43.010Z,99.99
2019-02-11T02:56:43.002Z,99.99
2019-02-11T02:57:42.987Z,99.99
2019-02-11T02:58:42.975Z,99.99
2019-02-11T02:59:42.967Z,99.99
2019-02-11T03:00:42.956Z,99.99
2019-02-11T03:01:42.946Z,99.99
2019-02-11T03:02:42.934Z,99.99
2019-02-11T03:03:42.924Z,99.99
2019-02-11T03:04:42.915Z,99.99
2019-02-11T03:05:42.905Z,99.99
2019-02-11T03:06:42.892Z,99.99
2019-02-11T03:07:42.884Z,99.99
2019-02-11T03:08:42.874Z,99.99
2019-02-11T03:09:42.862Z,99.99
2019-02-11T03:10:42.849Z,99.99
2019-02-11T03:11:42.839Z,99.99
2019-02-11T03:12:42.831Z,99.99
2019-02-11T03:13:42.819Z,99.99
2019-02-11T03:14:42.809Z,99.99
2019-02-11T03:15:42.798Z,99.99
2019-02-11T03:16:42.786Z,99.99
2019-02-11T03:17:42.783Z,99.99
2019-02-11T03:18:42.765Z,99.99
2019-02-11T03:19:42.754Z,99.99
2019-02-11T03:20:42.744Z,99.99
2019-02-11T03:21:42.734Z,99.99
2019-02-11T03:22:42.724Z,99.99
2019-02-11T03:23:42.715Z,99.99
2019-02-11T03:24:42.717Z,99.99
2019-02-11T03:25:42.696Z,99.99
2019-02-11T03:26:42.679Z,99.99
2019-02-11T03:27:42.670Z,99.99
2019-02-11T03:28:42.659Z,99.99
2019-02-11T03:29:42.648Z,99.99
2019-02-11T03:30:42.645Z,99.99
2019-02-11T03:31:42.632Z,99.99
2019-02-11T03:32:42.618Z,99.99
2019-02-11T03:33:42.608Z,99.99
2019-02-11T03:34:42.599Z,99.99
2019-02-11T03:35:42.586Z,99.99
2019-02-11T03:36:42.575Z,99.99
2019-02-11T03:37:42.564Z,99.99
2019-02-11T03:38:42.553Z,99.99
2019-02-11T03:39:42.546Z,99.99
2019-02-11T03:40:42.532Z,99.99
2019-02-11T03:41:42.525Z,99.99
2019-02-11T03:42:42.511Z,99.99
2019-02-11T03:43:42.505Z,99.99
2019-02-11T03:44:42.494Z,99.99
2019-02-11T03:45:42.479Z,99.99
2019-02-11T03:46:42.470Z,99.99
2019-02-11T03:47:42.459Z,99.99
2019-02-11T03:48:42.460Z,99.99
2019-02-11T03:49:42.437Z,99.99
2019-02-11T03:50:42.428Z,99.99
2019-02-11T03:51:42.417Z,99.99
2019-02-11T03:52:42.408Z,99.99
2019-02-11T03:53:42.396Z,99.99
2019-02-11T03:54:42.385Z,99.99
2019-02-11T03:55:42.375Z,99.99
2019-02-11T03:56:42.363Z,99.99
2019-02-11T03:57:42.355Z,99.99
2019-02-11T03:58:42.343Z,99.99
2019-02-11T03:59:42.337Z,99.99
2019-02-11T04:00:42.330Z,99.99
2019-02-11T04:01:42.315Z,99.99
2019-02-11T04:02:42.301Z,99.99
2019-02-11T04:03:42.291Z,99.99
2019-02-11T04:04:42.285Z,99.99
2019-02-11T04:05:42.271Z,99.99
2019-02-11T04:06:42.263Z,99.99
2019-02-11T04:07:42.247Z,99.99
2019-02-11T04:08:42.236Z,99.99
2019-02-11T04:09:42.226Z,99.99
2019-02-11T04:10:42.216Z,99.99
2019-02-11T04:11:42.207Z,99.99
2019-02-11T04:12:42.198Z,99.99
2019-02-11T04:13:42.187Z,99.99
2019-02-11T04:14:42.176Z,99.99
2019-02-11T04:15:42.165Z,99.99
2019-02-11T04:16:42.166Z,99.99
2019-02-11T04:17:42.144Z,99.99
2019-02-11T04:18:42.132Z,99.99
2019-02-11T04:19:42.121Z,99.99
2019-02-11T04:20:42.113Z,99.99
2019-02-11T04:21:42.104Z,99.99
2019-02-11T04:22:42.090Z,99.99
2019-02-11T04:23:42.081Z,99.99
2019-02-11T04:24:42.070Z,99.99
2019-02-11T04:25:42.059Z,99.99
2019-02-11T04:26:42.047Z,99.99
2019-02-11T04:27:42.042Z,99.99
2019-02-11T04:28:42.029Z,99.99
2019-02-11T04:29:42.020Z,99.99
2019-02-11T04:30:42.005Z,99.64
2019-02-11T04:31:41.995Z,99.64
2019-02-11T04:32:41.986Z,99.54
2019-02-11T04:33:41.974Z,98.60
2019-02-11T04:34:41.964Z,98.24
2019-02-11T04:35:41.954Z,98.60
2019-02-11T04:36:41.943Z,98.50
2019-02-11T04:37:41.932Z,98.39
2019-02-11T04:38:41.920Z,98.29
2019-02-11T04:39:41.917Z,98.39
2019-02-11T04:40:41.901Z,98.08
2019-02-11T04:41:41.891Z,98.03
2019-02-11T04:42:41.882Z,98.24
2019-02-11T04:43:41.868Z,98.45
2019-02-11T04:44:41.861Z,97.93
2019-02-11T04:45:41.854Z,98.66
2019-02-11T04:46:41.836Z,98.55
2019-02-11T04:47:41.829Z,97.89
2019-02-11T04:48:41.816Z,97.68
2019-02-11T04:49:41.804Z,97.93
2019-02-11T04:50:41.829Z,97.99
2019-02-11T04:51:41.783Z,98.20
2019-02-11T04:52:41.774Z,98.10
2019-02-11T04:53:41.764Z,98.10
2019-02-11T04:54:41.757Z,97.78
2019-02-11T04:55:41.746Z,97.89
2019-02-11T04:56:41.729Z,97.99
2019-02-11T04:57:41.719Z,97.58
2019-02-11T04:58:41.709Z,97.06
2019-02-11T04:59:41.701Z,97.37
2019-02-11T05:00:41.688Z,97.33
2019-02-11T05:01:41.686Z,97.06
2019-02-11T05:02:41.669Z,96.75
2019-02-11T05:03:41.657Z,97.47
2019-02-11T05:04:41.650Z,97.37
2019-02-11T05:05:41.636Z,97.37
2019-02-11T05:06:41.630Z,97.58
2019-02-11T05:07:41.614Z,97.58
2019-02-11T05:08:41.606Z,97.27
2019-02-11T05:09:41.595Z,97.16
2019-02-11T05:10:41.581Z,97.33
2019-02-11T05:11:41.572Z,96.75
2019-02-11T05:12:41.560Z,96.95
2019-02-11T05:13:41.607Z,96.85
2019-02-11T05:14:43.761Z,97.16
2019-02-11T05:15:41.531Z,95.98
2019-02-11T05:16:41.519Z,95.77
2019-02-11T05:17:41.511Z,96.23
2019-02-11T05:18:41.497Z,96.29
2019-02-11T05:19:41.485Z,96.19
2019-02-11T05:20:41.475Z,95.77
2019-02-11T05:21:41.465Z,95.04
2019-02-11T05:22:41.455Z,95.04
2019-02-11T05:23:41.448Z,95.36
2019-02-11T05:24:41.434Z,95.56
2019-02-11T05:25:41.423Z,95.46
2019-02-11T05:26:41.412Z,95.56
2019-02-11T05:27:41.402Z,95.67
2019-02-11T05:28:41.390Z,95.46
2019-02-11T05:29:41.380Z,95.56
2019-02-11T05:30:41.371Z,95.46
2019-02-11T05:31:41.362Z,95.46
2019-02-11T05:32:41.362Z,95.56
2019-02-11T05:33:41.339Z,95.04
2019-02-11T05:34:41.334Z,94.53
2019-02-11T05:35:41.314Z,95.15
2019-02-11T05:36:41.313Z,95.04
2019-02-11T05:37:41.295Z,95.25
2019-02-11T05:38:41.284Z,95.36
2019-02-11T05:39:41.281Z,95.25
2019-02-11T05:40:41.266Z,95.10
2019-02-11T05:41:41.256Z,94.58
2019-02-11T05:42:41.241Z,94.37
2019-02-11T05:43:41.231Z,94.37
2019-02-11T05:44:41.223Z,94.48
2019-02-11T05:45:41.211Z,94.58
2019-02-11T05:46:41.199Z,94.48
2019-02-11T05:47:41.187Z,95.62
2019-02-11T05:48:41.179Z,95.10
2019-02-11T05:49:41.170Z,94.58
2019-02-11T05:50:41.158Z,94.27
2019-02-11T05:51:41.145Z,94.48
2019-02-11T05:52:41.136Z,94.89
2019-02-11T05:53:41.124Z,95.31
2019-02-11T05:54:41.113Z,95.62
2019-02-11T05:55:41.104Z,94.68
2019-02-11T05:56:41.096Z,95.20
2019-02-11T05:57:41.087Z,94.37
2019-02-11T05:58:41.070Z,94.58
2019-02-11T05:59:41.065Z,94.68
2019-02-11T06:00:41.050Z,94.79
2019-02-11T06:01:41.041Z,94.37
2019-02-11T06:02:41.030Z,94.37
2019-02-11T06:03:41.018Z,94.48
2019-02-11T06:04:41.006Z,94.37
2019-02-11T06:05:41.005Z,94.68
2019-02-11T06:06:40.988Z,95.62
2019-02-11T06:07:40.982Z,95.51
2019-02-11T06:08:40.967Z,94.37
2019-02-11T06:09:40.953Z,94.79
2019-02-11T06:10:40.944Z,94.48
2019-02-11T06:11:40.933Z,95.10
2019-02-11T06:12:40.938Z,95.51
2019-02-11T06:13:40.913Z,94.89
2019-02-11T06:14:40.901Z,94.48
2019-02-11T06:15:40.888Z,94.68
2019-02-11T06:16:40.879Z,94.48
2019-02-11T06:17:40.868Z,94.37
2019-02-11T06:18:40.858Z,94.43
2019-02-11T06:19:40.848Z,94.37
2019-02-11T06:20:40.835Z,94.54
2019-02-11T06:21:40.827Z,94.23
2019-02-11T06:22:40.816Z,94.48
2019-02-11T06:23:40.804Z,94.43
2019-02-11T06:24:40.795Z,94.54
2019-02-11T06:25:40.787Z,94.37
2019-02-11T06:26:40.772Z,94.89
2019-02-11T06:27:40.762Z,94.85
2019-02-11T06:28:40.750Z,94.95
2019-02-11T06:29:40.745Z,94.48
2019-02-11T06:30:40.730Z,94.54
2019-02-11T06:31:40.720Z,94.43
2019-02-11T06:32:40.709Z,94.54
2019-02-11T06:33:40.698Z,93.91
2019-02-11T06:34:40.687Z,93.40
2019-02-11T06:35:40.675Z,93.40
2019-02-11T06:36:40.665Z,93.19
2019-02-11T06:37:40.668Z,93.40
2019-02-11T06:38:40.646Z,93.29
2019-02-11T06:39:40.635Z,93.29
2019-02-11T06:40:40.628Z,93.40
2019-02-11T06:41:40.611Z,93.40
2019-02-11T06:42:40.608Z,93.29
2019-02-11T06:43:40.591Z,93.19
2019-02-11T06:44:40.584Z,93.81
2019-02-11T06:45:40.572Z,93.40
2019-02-11T06:46:40.559Z,93.29
2019-02-11T06:47:40.551Z,93.50
2019-02-11T06:48:40.539Z,93.29
2019-02-11T06:49:40.525Z,93.19
2019-02-11T06:50:40.520Z,93.08
2019-02-11T06:51:40.510Z,93.19
2019-02-11T06:52:40.494Z,93.35
2019-02-11T06:53:40.485Z,93.50
2019-02-11T06:54:40.477Z,93.40
2019-02-11T06:55:40.462Z,93.50
2019-02-11T06:56:40.452Z,93.60
2019-02-11T06:57:40.441Z,93.60
2019-02-11T06:58:40.431Z,94.02
2019-02-11T06:59:40.420Z,94.02
2019-02-11T07:00:40.408Z,94.02
2019-02-11T07:01:40.398Z,93.29
2019-02-11T07:02:40.441Z,93.35
2019-02-11T07:03:40.378Z,93.40
2019-02-11T07:04:40.367Z,93.25
2019-02-11T07:05:40.360Z,92.98
2019-02-11T07:06:40.346Z,93.08
2019-02-11T07:07:40.339Z,93.15
2019-02-11T07:08:40.324Z,93.50
2019-02-11T07:09:40.314Z,93.40
2019-02-11T07:10:40.302Z,93.19
2019-02-11T07:11:40.293Z,93.25
2019-02-11T07:12:40.281Z,93.08
2019-02-11T07:13:40.274Z,92.47
2019-02-11T07:14:40.260Z,92.43
2019-02-11T07:15:40.249Z,93.15
2019-02-11T07:16:40.240Z,93.25
2019-02-11T07:17:40.232Z,93.04
2019-02-11T07:18:40.216Z,93.46
2019-02-11T07:19:40.215Z,93.66
2019-02-11T07:20:40.216Z,94.43
2019-02-11T07:21:40.184Z,94.29
2019-02-11T07:22:40.178Z,94.74
2019-02-11T07:23:40.165Z,94.91
2019-02-11T07:24:40.154Z,94.74
2019-02-11T07:25:40.144Z,95.22
2019-02-11T07:26:40.130Z,95.74
2019-02-11T07:27:40.120Z,95.53
2019-02-11T07:28:40.111Z,94.64
2019-02-11T07:29:40.101Z,95.53
2019-02-11T07:30:40.088Z,94.70
2019-02-11T07:31:40.079Z,93.98
2019-02-11T07:32:40.069Z,93.98
2019-02-11T07:33:40.058Z,93.98
2019-02-11T07:34:40.104Z,93.35
2019-02-11T07:35:40.035Z,93.87
2019-02-11T07:36:40.025Z,93.21
2019-02-11T07:37:40.018Z,93.35
2019-02-11T07:38:40.007Z,93.31
2019-02-11T07:39:39.994Z,93.00
2019-02-11T07:40:39.982Z,93.21
2019-02-11T07:41:39.977Z,92.32
2019-02-11T07:42:39.960Z,90.93
2019-02-11T07:43:39.953Z,90.62
2019-02-11T07:44:39.940Z,90.93
2019-02-11T07:45:39.929Z,90.93
2019-02-11T07:46:39.934Z,90.10
2019-02-11T07:47:39.913Z,90.78
2019-02-11T07:48:39.897Z,90.72
2019-02-11T07:49:39.894Z,91.24
2019-02-11T07:50:39.876Z,90.99
2019-02-11T07:51:42.281Z,90.78
2019-02-11T07:52:39.854Z,91.72
2019-02-11T07:53:39.846Z,92.03
2019-02-11T07:54:39.832Z,93.21
2019-02-11T07:55:39.827Z,93.10
2019-02-11T07:56:39.812Z,94.14
2019-02-11T07:57:39.800Z,94.56
2019-02-11T07:58:39.792Z,95.43
2019-02-11T07:59:39.779Z,96.05
2019-02-11T08:00:39.770Z,96.78
2019-02-11T08:01:39.758Z,97.09
2019-02-11T08:02:39.749Z,97.19
2019-02-11T08:03:39.736Z,97.19
2019-02-11T08:04:39.727Z,96.98
2019-02-11T08:05:39.716Z,96.57
2019-02-11T08:06:39.706Z,96.57
2019-02-11T08:07:39.699Z,97.19
2019-02-11T08:08:39.683Z,97.09
2019-02-11T08:09:39.680Z,97.19
2019-02-11T08:10:39.663Z,96.98
2019-02-11T08:11:39.651Z,97.25
2019-02-11T08:12:39.648Z,97.04
2019-02-11T08:13:39.630Z,96.62
2019-02-11T08:14:39.620Z,96.42
2019-02-11T08:15:39.608Z,96.52
2019-02-11T08:16:39.599Z,96.62
2019-02-11T08:17:39.588Z,95.24
2019-02-11T08:18:39.582Z,95.24
2019-02-11T08:19:39.568Z,95.29
2019-02-11T08:20:39.556Z,93.91
2019-02-11T08:21:39.545Z,92.87
2019-02-11T08:22:39.536Z,92.91
2019-02-11T08:23:39.526Z,93.08
2019-02-11T08:24:39.513Z,93.91
2019-02-11T08:25:39.502Z,92.36
2019-02-11T08:26:39.492Z,93.33
2019-02-11T08:27:39.481Z,92.81
2019-02-11T08:28:39.470Z,93.12
2019-02-11T08:29:39.459Z,93.12
2019-02-11T08:30:39.453Z,93.08
2019-02-11T08:31:39.445Z,91.67
2019-02-11T08:32:39.429Z,91.84
2019-02-11T08:33:39.417Z,91.28
2019-02-11T08:34:39.407Z,91.38
2019-02-11T08:35:39.395Z,90.87
2019-02-11T08:36:39.385Z,89.94
2019-02-11T08:37:39.377Z,89.83
2019-02-11T08:38:39.365Z,90.56
2019-02-11T08:39:39.352Z,90.77
2019-02-11T08:40:39.345Z,91.07
2019-02-11T08:41:39.333Z,90.35
2019-02-11T08:42:39.328Z,91.63
2019-02-11T08:43:39.314Z,92.05
2019-02-11T08:44:39.300Z,91.63
2019-02-11T08:45:46.620Z,91.42
2019-02-11T08:46:40.280Z,90.70
2019-02-11T08:47:39.270Z,90.70
2019-02-11T08:48:39.256Z,90.33
2019-02-11T08:49:39.248Z,90.70
2019-02-11T08:50:39.236Z,90.44
2019-02-11T08:51:39.227Z,90.53
2019-02-11T08:52:39.214Z,90.80
2019-02-11T08:53:39.202Z,90.50
2019-02-11T08:54:39.195Z,90.39
2019-02-11T08:55:39.182Z,90.39
2019-02-11T08:56:39.171Z,90.39
2019-02-11T08:57:39.162Z,91.16
2019-02-11T08:58:39.152Z,90.60
2019-02-11T08:59:39.138Z,90.80
2019-02-11T09:00:39.127Z,90.39
2019-02-11T09:01:39.119Z,90.70
2019-02-11T09:02:39.107Z,90.19
2019-02-11T09:03:39.157Z,90.70
2019-02-11T09:04:39.087Z,90.19
2019-02-11T09:05:39.075Z,90.95
2019-02-11T09:06:39.111Z,90.64
2019-02-11T09:07:39.054Z,90.53
2019-02-11T09:08:39.042Z,89.92
2019-02-11T09:09:39.032Z,89.92
2019-02-11T09:10:39.021Z,89.92
2019-02-11T09:11:39.020Z,89.92
2019-02-11T09:12:39.002Z,90.64
2019-02-11T09:13:38.989Z,90.74
2019-02-11T09:14:38.979Z,90.64
2019-02-11T09:15:38.971Z,90.64
2019-02-11T09:16:38.962Z,90.02
2019-02-11T09:17:38.948Z,89.56
2019-02-11T09:18:38.937Z,88.16
2019-02-11T09:19:38.926Z,87.85
2019-02-11T09:20:38.914Z,88.22
2019-02-11T09:21:38.905Z,85.02
2019-02-11T09:22:38.896Z,85.84
2019-02-11T09:23:38.883Z,85.94
2019-02-11T09:24:38.877Z,85.22
2019-02-11T09:25:38.861Z,84.50
2019-02-11T09:26:38.851Z,83.77
2019-02-11T09:27:38.841Z,83.77
2019-02-11T09:28:38.828Z,82.95
2019-02-11T09:29:38.819Z,81.19
2019-02-11T09:30:39.929Z,81.60
2019-02-11T09:31:38.797Z,81.46
2019-02-11T09:32:38.802Z,80.84
2019-02-11T09:33:38.781Z,80.05
2019-02-11T09:34:38.764Z,79.43
2019-02-11T09:35:38.755Z,80.15
2019-02-11T09:36:38.744Z,78.39
2019-02-11T09:37:38.733Z,77.98
2019-02-11T09:38:38.722Z,76.91
2019-02-11T09:39:38.715Z,77.74
2019-02-11T09:40:38.702Z,77.84
2019-02-11T09:41:38.695Z,77.33
2019-02-11T09:42:38.681Z,75.57
2019-02-11T09:43:38.669Z,77.01
2019-02-11T09:44:38.658Z,75.15
2019-02-11T09:45:38.649Z,77.43
2019-02-11T09:46:38.636Z,77.22
2019-02-11T09:47:38.626Z,75.26
2019-02-11T09:48:38.615Z,76.46
2019-02-11T09:49:38.606Z,76.09
2019-02-11T09:50:38.595Z,74.84
2019-02-11T09:51:38.584Z,75.05
2019-02-11T09:52:38.574Z,76.50
2019-02-11T09:53:38.562Z,75.36
2019-02-11T09:54:38.552Z,74.43
2019-02-11T09:55:38.540Z,76.36
2019-02-11T09:56:38.533Z,75.46
2019-02-11T09:57:38.519Z,75.15
2019-02-11T09:58:38.512Z,75.36
2019-02-11T09:59:38.501Z,74.33
2019-02-11T10:00:38.487Z,74.29
2019-02-11T10:01:38.476Z,77.39
2019-02-11T10:02:38.466Z,74.29
2019-02-11T10:03:38.455Z,74.19
2019-02-11T10:04:38.448Z,74.98
2019-02-11T10:05:38.436Z,73.54
2019-02-11T10:06:38.422Z,73.22
2019-02-11T10:07:38.413Z,73.54
2019-02-11T10:08:38.401Z,73.64
2019-02-11T10:09:38.390Z,74.05
2019-02-11T10:10:38.385Z,73.95
2019-02-11T10:11:38.370Z,74.26
2019-02-11T10:12:38.359Z,74.02
2019-02-11T10:13:38.349Z,74.74
2019-02-11T10:14:38.337Z,74.74
2019-02-11T10:15:38.331Z,74.88
2019-02-11T10:16:38.321Z,74.88
2019-02-11T10:17:38.305Z,75.81
2019-02-11T10:18:38.297Z,74.88
2019-02-11T10:19:38.283Z,75.60
2019-02-11T10:20:38.274Z,74.77
2019-02-11T10:21:38.263Z,76.90
2019-02-11T10:22:38.256Z,77.22
2019-02-11T10:23:38.243Z,76.60
2019-02-11T10:24:38.231Z,76.29
2019-02-11T10:25:38.225Z,76.12
2019-02-11T10:26:38.217Z,75.05
2019-02-11T10:27:38.200Z,75.09
2019-02-11T10:28:38.189Z,75.19
2019-02-11T10:29:38.177Z,74.57
2019-02-11T10:30:38.168Z,74.22
2019-02-11T10:31:38.156Z,74.36
2019-02-11T10:32:38.148Z,75.09
2019-02-11T10:33:38.137Z,74.12
2019-02-11T10:34:38.125Z,71.85
2019-02-11T10:35:42.314Z,72.71
2019-02-11T10:36:38.104Z,72.06
2019-02-11T10:37:38.095Z,72.71
2019-02-11T10:38:38.082Z,73.33
2019-02-11T10:39:38.105Z,73.22
2019-02-11T10:40:38.060Z,73.74
2019-02-11T10:41:38.049Z,73.50
2019-02-11T10:42:38.038Z,73.02
2019-02-11T10:43:38.029Z,74.05
2019-02-11T10:44:38.018Z,71.78
2019-02-11T10:45:38.005Z,71.26
2019-02-11T10:46:37.996Z,71.98
2019-02-11T10:47:37.987Z,71.98
2019-02-11T10:48:37.974Z,71.37
2019-02-11T10:49:37.965Z,71.67
2019-02-11T10:50:37.953Z,72.30
2019-02-11T10:51:37.945Z,71.78
2019-02-11T10:52:37.937Z,72.06
2019-02-11T10:53:37.919Z,69.40
2019-02-11T10:54:37.922Z,69.27
2019-02-11T10:55:37.898Z,67.61
2019-02-11T10:56:37.889Z,67.17
2019-02-11T10:57:37.883Z,67.66
2019-02-11T10:58:37.868Z,66.52
2019-02-11T10:59:37.855Z,66.21
2019-02-11T11:00:37.845Z,67.14
2019-02-11T11:01:37.836Z,69.20
2019-02-11T11:02:37.830Z,67.48
2019-02-11T11:03:37.817Z,67.90
2019-02-11T11:04:37.806Z,68.07
2019-02-11T11:05:37.792Z,66.83
2019-02-11T11:06:37.788Z,66.45
2019-02-11T11:07:37.771Z,67.14
2019-02-11T11:08:37.760Z,66.63
2019-02-11T11:09:37.753Z,67.14
2019-02-11T11:10:37.740Z,67.55
2019-02-11T11:11:37.731Z,67.03
2019-02-11T11:12:37.717Z,67.14
2019-02-11T11:13:37.707Z,68.48
2019-02-11T11:14:37.700Z,68.00
2019-02-11T11:15:37.685Z,68.79
2019-02-11T11:16:37.675Z,68.62
2019-02-11T11:17:37.666Z,69.41
2019-02-11T11:18:37.653Z,70.06
2019-02-11T11:19:37.642Z,70.68
2019-02-11T11:20:37.637Z,69.65
2019-02-11T11:21:39.212Z,70.89
2019-02-11T11:22:37.612Z,69.85
2019-02-11T11:23:37.603Z,71.20
2019-02-11T11:24:37.597Z,70.27
2019-02-11T11:25:37.579Z,68.82
2019-02-11T11:26:37.587Z,69.51
2019-02-11T11:27:37.559Z,68.27
2019-02-11T11:28:37.547Z,68.17
2019-02-11T11:29:37.537Z,67.45
2019-02-11T11:30:37.528Z,69.93
2019-02-11T11:31:37.516Z,67.86
2019-02-11T11:32:37.509Z,67.03
2019-02-11T11:33:37.494Z,69.10
2019-02-11T11:34:37.484Z,67.38
2019-02-11T11:35:37.474Z,67.45
2019-02-11T11:36:37.510Z,67.45
2019-02-11T11:37:37.453Z,68.07
2019-02-11T11:38:37.443Z,68.24
2019-02-11T11:39:37.429Z,67.03
2019-02-11T11:40:37.420Z,66.80
2019-02-11T11:41:37.409Z,66.63
2019-02-11T11:42:37.399Z,65.88
2019-02-11T11:43:37.390Z,65.77
2019-02-11T11:44:37.381Z,65.56
2019-02-11T11:45:37.369Z,66.63
2019-02-11T11:46:45.745Z,67.32
2019-02-11T11:47:38.346Z,67.42
2019-02-11T11:48:37.334Z,67.42
2019-02-11T11:49:37.336Z,65.67
2019-02-11T11:50:37.313Z,67.45
2019-02-11T11:51:37.302Z,67.35
2019-02-11T11:52:37.340Z,65.49
2019-02-11T11:53:37.283Z,67.14
2019-02-11T11:54:37.271Z,65.91
2019-02-11T11:55:37.267Z,66.52
2019-02-11T11:56:37.261Z,66.01
2019-02-11T11:57:37.245Z,66.94
2019-02-11T11:58:37.237Z,68.48
2019-02-11T11:59:37.220Z,67.48
2019-02-11T12:00:37.213Z,66.76
2019-02-11T12:01:37.199Z,67.38
2019-02-11T12:02:37.199Z,67.69
2019-02-11T12:03:37.175Z,69.03
2019-02-11T12:04:37.173Z,67.79
2019-02-11T12:05:37.153Z,68.51
2019-02-11T12:06:37.153Z,67.48
2019-02-11T12:07:37.147Z,67.10
2019-02-11T12:08:37.125Z,65.94
2019-02-11T12:09:37.117Z,68.62
2019-02-11T12:10:37.148Z,67.48
2019-02-11T12:11:37.091Z,68.10
2019-02-11T12:12:37.082Z,67.07
2019-02-11T12:13:37.074Z,67.38
2019-02-11T12:14:37.061Z,67.69
2019-02-11T12:15:37.052Z,67.58
2019-02-11T12:16:37.039Z,68.62
2019-02-11T12:17:37.035Z,68.51
2019-02-11T12:18:37.018Z,68.21
2019-02-11T12:19:37.015Z,68.30
2019-02-11T12:20:37.049Z,68.10
2019-02-11T12:21:36.986Z,68.82
2019-02-11T12:22:36.984Z,69.34
2019-02-11T12:23:36.966Z,71.12
2019-02-11T12:24:36.955Z,70.27
2019-02-11T12:25:36.944Z,70.06
2019-02-11T12:26:36.942Z,69.96
2019-02-11T12:27:36.924Z,70.30
2019-02-11T12:28:36.908Z,69.75
2019-02-11T12:29:36.906Z,70.06
2019-02-11T12:30:36.890Z,70.47
2019-02-11T12:31:36.891Z,69.54
2019-02-11T12:32:36.873Z,69.51
2019-02-11T12:33:36.862Z,69.72
2019-02-11T12:34:36.850Z,69.10
2019-02-11T12:35:36.837Z,69.13
2019-02-11T12:36:36.930Z,70.47
2019-02-11T12:37:36.817Z,71.51
2019-02-11T12:38:36.805Z,71.92
2019-02-11T12:39:36.794Z,71.85
2019-02-11T12:40:36.792Z,73.39
2019-02-11T12:41:36.786Z,73.19
2019-02-11T12:42:36.762Z,72.16
2019-02-11T12:43:36.765Z,72.67
2019-02-11T12:44:36.745Z,72.78
2019-02-11T12:45:36.734Z,72.99
2019-02-11T12:46:36.723Z,73.81
2019-02-11T12:47:36.711Z,73.50
2019-02-11T12:48:36.708Z,74.53
2019-02-11T12:49:36.697Z,74.88
2019-02-11T12:50:36.690Z,75.05
2019-02-11T12:51:36.678Z,75.15
2019-02-11T12:52:36.658Z,74.33